Sage, Wyoming
Current Conditions -  °F | °C
As of 6:35 PM on Saturday 25 Oct 2014 (Local Time) from KEMM Reporting Station
Clear Clear  
Wind Chill: 57°   Ceiling: Unl
Heat Index: 57°   Visibility: 10mi
Dew Point: 21°   Wind: 5mph
Humidity: 25%   Direction: 240°WSW
Pressure: 30.06"   Gusts: NA
Location:  41.81°N, 110.96°W
Report Text: KEMM 260035Z AUTO 24004KT 10SM CLR 14/M06 A3006 RMK AO2
Loading
Personal Weather Stations






























Interactive Weather Map
Tropical Storm Tracking
New forecast layout! Learn more

10-Day Weather Forecast

Advertisements
Track Severe Weather on mobile